<?xml version="1.0" encoding="UTF-8" standalone="no" ?>
<gpx xmlns="http://www.topografix.com/GPX/1/1" xmlns:xsi="http://www.w3.org/2001/XMLSchema-instance" xsi:schemaLocation="http://www.topografix.com/GPX/1/1 http://www.topografix.com/GPX/1/1/gpx.xsd" version="1.1" creator="VisuGPX - https://www.visugpx.com">
  <metadata>
    <name>12509211-Tour forêt multonne</name>
  </metadata>
  <trk>
    <name><![CDATA[12509211-Tour forêt multonne]]></name>
    <trkseg>
      <trkpt lat="48.44716" lon="-0.06059">
        <ele>201</ele>
        <time>2021-02-05T14:08:08Z</time>
      </trkpt>
      <trkpt lat="48.44775" lon="-0.06084">
        <ele>201</ele>
        <time>2021-02-05T14:08:22Z</time>
      </trkpt>
      <trkpt lat="48.44795" lon="-0.06124">
        <ele>203</ele>
        <time>2021-02-05T14:08:30Z</time>
      </trkpt>
      <trkpt lat="48.44774" lon="-0.0618">
        <ele>204</ele>
        <time>2021-02-05T14:08:40Z</time>
      </trkpt>
      <trkpt lat="48.44809" lon="-0.06218">
        <ele>205</ele>
        <time>2021-02-05T14:08:50Z</time>
      </trkpt>
      <trkpt lat="48.44808" lon="-0.0629">
        <ele>207</ele>
        <time>2021-02-05T14:09:01Z</time>
      </trkpt>
      <trkpt lat="48.44785" lon="-0.06384">
        <ele>208</ele>
        <time>2021-02-05T14:09:17Z</time>
      </trkpt>
      <trkpt lat="48.44771" lon="-0.06458">
        <ele>208</ele>
        <time>2021-02-05T14:09:29Z</time>
      </trkpt>
      <trkpt lat="48.45047" lon="-0.06625">
        <ele>216</ele>
        <time>2021-02-05T14:10:38Z</time>
      </trkpt>
      <trkpt lat="48.45069" lon="-0.06676">
        <ele>219</ele>
        <time>2021-02-05T14:10:48Z</time>
      </trkpt>
      <trkpt lat="48.45089" lon="-0.0679">
        <ele>223</ele>
        <time>2021-02-05T14:11:06Z</time>
      </trkpt>
      <trkpt lat="48.45112" lon="-0.0684">
        <ele>226</ele>
        <time>2021-02-05T14:11:15Z</time>
      </trkpt>
      <trkpt lat="48.451" lon="-0.06977">
        <ele>237</ele>
        <time>2021-02-05T14:11:37Z</time>
      </trkpt>
      <trkpt lat="48.45096" lon="-0.07118">
        <ele>248</ele>
        <time>2021-02-05T14:11:59Z</time>
      </trkpt>
      <trkpt lat="48.45057" lon="-0.07309">
        <ele>257</ele>
        <time>2021-02-05T14:12:29Z</time>
      </trkpt>
      <trkpt lat="48.45252" lon="-0.07222">
        <ele>254</ele>
        <time>2021-02-05T14:13:17Z</time>
      </trkpt>
      <trkpt lat="48.45247" lon="-0.07402">
        <ele>258</ele>
        <time>2021-02-05T14:13:45Z</time>
      </trkpt>
      <trkpt lat="48.45258" lon="-0.07467">
        <ele>259</ele>
        <time>2021-02-05T14:13:55Z</time>
      </trkpt>
      <trkpt lat="48.45263" lon="-0.07932">
        <ele>270</ele>
        <time>2021-02-05T14:15:07Z</time>
      </trkpt>
      <trkpt lat="48.45434" lon="-0.08167">
        <ele>259</ele>
        <time>2021-02-05T14:16:01Z</time>
      </trkpt>
      <trkpt lat="48.45447" lon="-0.08274">
        <ele>255</ele>
        <time>2021-02-05T14:16:18Z</time>
      </trkpt>
      <trkpt lat="48.45449" lon="-0.08372">
        <ele>257</ele>
        <time>2021-02-05T14:16:33Z</time>
      </trkpt>
      <trkpt lat="48.45442" lon="-0.08478">
        <ele>265</ele>
        <time>2021-02-05T14:16:50Z</time>
      </trkpt>
      <trkpt lat="48.45385" lon="-0.08503">
        <ele>275</ele>
        <time>2021-02-05T14:17:04Z</time>
      </trkpt>
      <trkpt lat="48.45361" lon="-0.08538">
        <ele>281</ele>
        <time>2021-02-05T14:17:12Z</time>
      </trkpt>
      <trkpt lat="48.45306" lon="-0.08548">
        <ele>292</ele>
        <time>2021-02-05T14:17:24Z</time>
      </trkpt>
      <trkpt lat="48.45289" lon="-0.08574">
        <ele>296</ele>
        <time>2021-02-05T14:17:30Z</time>
      </trkpt>
      <trkpt lat="48.45285" lon="-0.08808">
        <ele>300</ele>
        <time>2021-02-05T14:18:06Z</time>
      </trkpt>
      <trkpt lat="48.45277" lon="-0.09137">
        <ele>297</ele>
        <time>2021-02-05T14:18:57Z</time>
      </trkpt>
      <trkpt lat="48.45292" lon="-0.09382">
        <ele>297</ele>
        <time>2021-02-05T14:19:35Z</time>
      </trkpt>
      <trkpt lat="48.45107" lon="-0.0937">
        <ele>341</ele>
        <time>2021-02-05T14:20:19Z</time>
      </trkpt>
      <trkpt lat="48.45087" lon="-0.0959">
        <ele>340</ele>
        <time>2021-02-05T14:20:53Z</time>
      </trkpt>
      <trkpt lat="48.44858" lon="-0.095">
        <ele>376</ele>
        <time>2021-02-05T14:21:48Z</time>
      </trkpt>
      <trkpt lat="48.44865" lon="-0.09665">
        <ele>370</ele>
        <time>2021-02-05T14:22:14Z</time>
      </trkpt>
      <trkpt lat="48.44839" lon="-0.09748">
        <ele>368</ele>
        <time>2021-02-05T14:22:28Z</time>
      </trkpt>
      <trkpt lat="48.44836" lon="-0.09935">
        <ele>359</ele>
        <time>2021-02-05T14:22:57Z</time>
      </trkpt>
      <trkpt lat="48.44824" lon="-0.10055">
        <ele>356</ele>
        <time>2021-02-05T14:23:16Z</time>
      </trkpt>
      <trkpt lat="48.44823" lon="-0.10308">
        <ele>342</ele>
        <time>2021-02-05T14:23:55Z</time>
      </trkpt>
      <trkpt lat="48.44779" lon="-0.10492">
        <ele>339</ele>
        <time>2021-02-05T14:24:25Z</time>
      </trkpt>
      <trkpt lat="48.44782" lon="-0.10593">
        <ele>333</ele>
        <time>2021-02-05T14:24:41Z</time>
      </trkpt>
      <trkpt lat="48.44903" lon="-0.10568">
        <ele>327</ele>
        <time>2021-02-05T14:25:10Z</time>
      </trkpt>
      <trkpt lat="48.44995" lon="-0.10464">
        <ele>320</ele>
        <time>2021-02-05T14:25:37Z</time>
      </trkpt>
      <trkpt lat="48.45095" lon="-0.10352">
        <ele>314</ele>
        <time>2021-02-05T14:26:06Z</time>
      </trkpt>
      <trkpt lat="48.45139" lon="-0.10261">
        <ele>311</ele>
        <time>2021-02-05T14:26:23Z</time>
      </trkpt>
      <trkpt lat="48.45276" lon="-0.1013">
        <ele>301</ele>
        <time>2021-02-05T14:27:01Z</time>
      </trkpt>
      <trkpt lat="48.45306" lon="-0.10063">
        <ele>298</ele>
        <time>2021-02-05T14:27:13Z</time>
      </trkpt>
      <trkpt lat="48.45448" lon="-0.09998">
        <ele>281</ele>
        <time>2021-02-05T14:27:48Z</time>
      </trkpt>
      <trkpt lat="48.45558" lon="-0.09926">
        <ele>264</ele>
        <time>2021-02-05T14:28:16Z</time>
      </trkpt>
      <trkpt lat="48.45721" lon="-0.09893">
        <ele>252</ele>
        <time>2021-02-05T14:28:55Z</time>
      </trkpt>
      <trkpt lat="48.45764" lon="-0.09984">
        <ele>249</ele>
        <time>2021-02-05T14:29:12Z</time>
      </trkpt>
      <trkpt lat="48.4568" lon="-0.10164">
        <ele>250</ele>
        <time>2021-02-05T14:29:46Z</time>
      </trkpt>
      <trkpt lat="48.45771" lon="-0.10341">
        <ele>245</ele>
        <time>2021-02-05T14:30:21Z</time>
      </trkpt>
      <trkpt lat="48.45738" lon="-0.10482">
        <ele>252</ele>
        <time>2021-02-05T14:30:44Z</time>
      </trkpt>
      <trkpt lat="48.45741" lon="-0.10619">
        <ele>258</ele>
        <time>2021-02-05T14:31:05Z</time>
      </trkpt>
      <trkpt lat="48.45707" lon="-0.10698">
        <ele>264</ele>
        <time>2021-02-05T14:31:20Z</time>
      </trkpt>
      <trkpt lat="48.45609" lon="-0.11016">
        <ele>279</ele>
        <time>2021-02-05T14:32:14Z</time>
      </trkpt>
      <trkpt lat="48.45365" lon="-0.11312">
        <ele>322</ele>
        <time>2021-02-05T14:33:27Z</time>
      </trkpt>
      <trkpt lat="48.45356" lon="-0.11398">
        <ele>325</ele>
        <time>2021-02-05T14:33:40Z</time>
      </trkpt>
      <trkpt lat="48.45322" lon="-0.11434">
        <ele>326</ele>
        <time>2021-02-05T14:33:50Z</time>
      </trkpt>
      <trkpt lat="48.45308" lon="-0.11532">
        <ele>335</ele>
        <time>2021-02-05T14:34:06Z</time>
      </trkpt>
      <trkpt lat="48.45163" lon="-0.11558">
        <ele>339</ele>
        <time>2021-02-05T14:34:40Z</time>
      </trkpt>
      <trkpt lat="48.45137" lon="-0.11587">
        <ele>340</ele>
        <time>2021-02-05T14:34:47Z</time>
      </trkpt>
      <trkpt lat="48.45099" lon="-0.11601">
        <ele>344</ele>
        <time>2021-02-05T14:34:57Z</time>
      </trkpt>
      <trkpt lat="48.45125" lon="-0.11461">
        <ele>343</ele>
        <time>2021-02-05T14:35:19Z</time>
      </trkpt>
      <trkpt lat="48.45084" lon="-0.11576">
        <ele>346</ele>
        <time>2021-02-05T14:35:39Z</time>
      </trkpt>
      <trkpt lat="48.44843" lon="-0.10959">
        <ele>334</ele>
        <time>2021-02-05T14:37:30Z</time>
      </trkpt>
      <trkpt lat="48.44862" lon="-0.11197">
        <ele>351</ele>
        <time>2021-02-05T14:38:07Z</time>
      </trkpt>
      <trkpt lat="48.44871" lon="-0.11457">
        <ele>357</ele>
        <time>2021-02-05T14:38:48Z</time>
      </trkpt>
      <trkpt lat="48.44864" lon="-0.11638">
        <ele>364</ele>
        <time>2021-02-05T14:39:16Z</time>
      </trkpt>
      <trkpt lat="48.44871" lon="-0.11757">
        <ele>365</ele>
        <time>2021-02-05T14:39:34Z</time>
      </trkpt>
      <trkpt lat="48.44835" lon="-0.11796">
        <ele>370</ele>
        <time>2021-02-05T14:39:45Z</time>
      </trkpt>
      <trkpt lat="48.44943" lon="-0.12468">
        <ele>388</ele>
        <time>2021-02-05T14:41:32Z</time>
      </trkpt>
      <trkpt lat="48.45165" lon="-0.13352">
        <ele>394</ele>
        <time>2021-02-05T14:43:58Z</time>
      </trkpt>
      <trkpt lat="48.45334" lon="-0.13881">
        <ele>377</ele>
        <time>2021-02-05T14:45:29Z</time>
      </trkpt>
      <trkpt lat="48.45387" lon="-0.13964">
        <ele>372</ele>
        <time>2021-02-05T14:45:47Z</time>
      </trkpt>
      <trkpt lat="48.45392" lon="-0.14063">
        <ele>371</ele>
        <time>2021-02-05T14:46:02Z</time>
      </trkpt>
      <trkpt lat="48.45629" lon="-0.1464">
        <ele>358</ele>
        <time>2021-02-05T14:47:47Z</time>
      </trkpt>
      <trkpt lat="48.45804" lon="-0.14817">
        <ele>345</ele>
        <time>2021-02-05T14:48:37Z</time>
      </trkpt>
      <trkpt lat="48.46027" lon="-0.14977">
        <ele>344</ele>
        <time>2021-02-05T14:49:34Z</time>
      </trkpt>
      <trkpt lat="48.46338" lon="-0.14991">
        <ele>340</ele>
        <time>2021-02-05T14:50:47Z</time>
      </trkpt>
      <trkpt lat="48.4642" lon="-0.15035">
        <ele>343</ele>
        <time>2021-02-05T14:51:07Z</time>
      </trkpt>
      <trkpt lat="48.46468" lon="-0.15149">
        <ele>349</ele>
        <time>2021-02-05T14:51:28Z</time>
      </trkpt>
      <trkpt lat="48.46645" lon="-0.15286">
        <ele>336</ele>
        <time>2021-02-05T14:52:15Z</time>
      </trkpt>
      <trkpt lat="48.46721" lon="-0.15304">
        <ele>327</ele>
        <time>2021-02-05T14:52:33Z</time>
      </trkpt>
      <trkpt lat="48.46807" lon="-0.15474">
        <ele>312</ele>
        <time>2021-02-05T14:53:06Z</time>
      </trkpt>
      <trkpt lat="48.46822" lon="-0.156">
        <ele>307</ele>
        <time>2021-02-05T14:53:26Z</time>
      </trkpt>
      <trkpt lat="48.46807" lon="-0.15658">
        <ele>310</ele>
        <time>2021-02-05T14:53:35Z</time>
      </trkpt>
      <trkpt lat="48.46893" lon="-0.15726">
        <ele>296</ele>
        <time>2021-02-05T14:53:58Z</time>
      </trkpt>
      <trkpt lat="48.46865" lon="-0.15918">
        <ele>301</ele>
        <time>2021-02-05T14:54:28Z</time>
      </trkpt>
      <trkpt lat="48.46826" lon="-0.16094">
        <ele>300</ele>
        <time>2021-02-05T14:54:57Z</time>
      </trkpt>
      <trkpt lat="48.46798" lon="-0.16296">
        <ele>301</ele>
        <time>2021-02-05T14:55:29Z</time>
      </trkpt>
      <trkpt lat="48.46853" lon="-0.16416">
        <ele>290</ele>
        <time>2021-02-05T14:55:52Z</time>
      </trkpt>
      <trkpt lat="48.46776" lon="-0.166">
        <ele>294</ele>
        <time>2021-02-05T14:56:25Z</time>
      </trkpt>
      <trkpt lat="48.46606" lon="-0.16733">
        <ele>298</ele>
        <time>2021-02-05T14:57:10Z</time>
      </trkpt>
      <trkpt lat="48.46435" lon="-0.16811">
        <ele>304</ele>
        <time>2021-02-05T14:57:52Z</time>
      </trkpt>
      <trkpt lat="48.46226" lon="-0.16969">
        <ele>310</ele>
        <time>2021-02-05T14:58:46Z</time>
      </trkpt>
      <trkpt lat="48.46006" lon="-0.17157">
        <ele>310</ele>
        <time>2021-02-05T14:59:45Z</time>
      </trkpt>
      <trkpt lat="48.45929" lon="-0.1751">
        <ele>295</ele>
        <time>2021-02-05T15:00:43Z</time>
      </trkpt>
      <trkpt lat="48.45766" lon="-0.17655">
        <ele>297</ele>
        <time>2021-02-05T15:01:27Z</time>
      </trkpt>
      <trkpt lat="48.45747" lon="-0.17568">
        <ele>309</ele>
        <time>2021-02-05T15:01:41Z</time>
      </trkpt>
      <trkpt lat="48.4546" lon="-0.17748">
        <ele>327</ele>
        <time>2021-02-05T15:02:54Z</time>
      </trkpt>
      <trkpt lat="48.45493" lon="-0.17812">
        <ele>315</ele>
        <time>2021-02-05T15:03:06Z</time>
      </trkpt>
      <trkpt lat="48.45385" lon="-0.1787">
        <ele>320</ele>
        <time>2021-02-05T15:03:33Z</time>
      </trkpt>
      <trkpt lat="48.45288" lon="-0.17836">
        <ele>327</ele>
        <time>2021-02-05T15:03:56Z</time>
      </trkpt>
      <trkpt lat="48.45163" lon="-0.1781">
        <ele>332</ele>
        <time>2021-02-05T15:04:26Z</time>
      </trkpt>
      <trkpt lat="48.45147" lon="-0.17761">
        <ele>341</ele>
        <time>2021-02-05T15:04:34Z</time>
      </trkpt>
      <trkpt lat="48.45096" lon="-0.17771">
        <ele>342</ele>
        <time>2021-02-05T15:04:46Z</time>
      </trkpt>
      <trkpt lat="48.45031" lon="-0.17765">
        <ele>343</ele>
        <time>2021-02-05T15:05:02Z</time>
      </trkpt>
      <trkpt lat="48.4509" lon="-0.17662">
        <ele>352</ele>
        <time>2021-02-05T15:05:23Z</time>
      </trkpt>
      <trkpt lat="48.45093" lon="-0.17578">
        <ele>357</ele>
        <time>2021-02-05T15:05:36Z</time>
      </trkpt>
      <trkpt lat="48.45149" lon="-0.17533">
        <ele>357</ele>
        <time>2021-02-05T15:05:51Z</time>
      </trkpt>
      <trkpt lat="48.45164" lon="-0.17473">
        <ele>360</ele>
        <time>2021-02-05T15:06:00Z</time>
      </trkpt>
      <trkpt lat="48.45162" lon="-0.17368">
        <ele>364</ele>
        <time>2021-02-05T15:06:17Z</time>
      </trkpt>
      <trkpt lat="48.4515" lon="-0.17194">
        <ele>365</ele>
        <time>2021-02-05T15:06:44Z</time>
      </trkpt>
      <trkpt lat="48.451" lon="-0.1705">
        <ele>366</ele>
        <time>2021-02-05T15:07:09Z</time>
      </trkpt>
      <trkpt lat="48.45026" lon="-0.16794">
        <ele>364</ele>
        <time>2021-02-05T15:07:52Z</time>
      </trkpt>
      <trkpt lat="48.45002" lon="-0.16736">
        <ele>363</ele>
        <time>2021-02-05T15:08:03Z</time>
      </trkpt>
      <trkpt lat="48.44993" lon="-0.16648">
        <ele>365</ele>
        <time>2021-02-05T15:08:17Z</time>
      </trkpt>
      <trkpt lat="48.44972" lon="-0.1659">
        <ele>365</ele>
        <time>2021-02-05T15:08:27Z</time>
      </trkpt>
      <trkpt lat="48.44937" lon="-0.16541">
        <ele>364</ele>
        <time>2021-02-05T15:08:38Z</time>
      </trkpt>
      <trkpt lat="48.45219" lon="-0.16335">
        <ele>386</ele>
        <time>2021-02-05T15:09:51Z</time>
      </trkpt>
      <trkpt lat="48.4521" lon="-0.16284">
        <ele>386</ele>
        <time>2021-02-05T15:09:59Z</time>
      </trkpt>
      <trkpt lat="48.45256" lon="-0.16215">
        <ele>389</ele>
        <time>2021-02-05T15:10:15Z</time>
      </trkpt>
      <trkpt lat="48.45355" lon="-0.16288">
        <ele>391</ele>
        <time>2021-02-05T15:10:40Z</time>
      </trkpt>
      <trkpt lat="48.45369" lon="-0.16202">
        <ele>393</ele>
        <time>2021-02-05T15:10:54Z</time>
      </trkpt>
      <trkpt lat="48.45432" lon="-0.16215">
        <ele>394</ele>
        <time>2021-02-05T15:11:09Z</time>
      </trkpt>
      <trkpt lat="48.45275" lon="-0.15648">
        <ele>405</ele>
        <time>2021-02-05T15:12:44Z</time>
      </trkpt>
      <trkpt lat="48.45301" lon="-0.15545">
        <ele>405</ele>
        <time>2021-02-05T15:13:01Z</time>
      </trkpt>
      <trkpt lat="48.44897" lon="-0.15185">
        <ele>406</ele>
        <time>2021-02-05T15:14:51Z</time>
      </trkpt>
      <trkpt lat="48.4492" lon="-0.14882">
        <ele>414</ele>
        <time>2021-02-05T15:15:38Z</time>
      </trkpt>
      <trkpt lat="48.44829" lon="-0.14873">
        <ele>405</ele>
        <time>2021-02-05T15:15:59Z</time>
      </trkpt>
      <trkpt lat="48.44783" lon="-0.14809">
        <ele>398</ele>
        <time>2021-02-05T15:16:14Z</time>
      </trkpt>
      <trkpt lat="48.44589" lon="-0.14723">
        <ele>374</ele>
        <time>2021-02-05T15:17:01Z</time>
      </trkpt>
      <trkpt lat="48.4451" lon="-0.14701">
        <ele>369</ele>
        <time>2021-02-05T15:17:20Z</time>
      </trkpt>
      <trkpt lat="48.44396" lon="-0.14654">
        <ele>364</ele>
        <time>2021-02-05T15:17:47Z</time>
      </trkpt>
      <trkpt lat="48.44232" lon="-0.14726">
        <ele>344</ele>
        <time>2021-02-05T15:18:27Z</time>
      </trkpt>
      <trkpt lat="48.44229" lon="-0.14678">
        <ele>351</ele>
        <time>2021-02-05T15:18:35Z</time>
      </trkpt>
      <trkpt lat="48.43995" lon="-0.14558">
        <ele>358</ele>
        <time>2021-02-05T15:19:32Z</time>
      </trkpt>
      <trkpt lat="48.43944" lon="-0.14494">
        <ele>357</ele>
        <time>2021-02-05T15:19:48Z</time>
      </trkpt>
      <trkpt lat="48.43842" lon="-0.14245">
        <ele>352</ele>
        <time>2021-02-05T15:20:33Z</time>
      </trkpt>
      <trkpt lat="48.43768" lon="-0.13992">
        <ele>347</ele>
        <time>2021-02-05T15:21:16Z</time>
      </trkpt>
      <trkpt lat="48.43728" lon="-0.13661">
        <ele>349</ele>
        <time>2021-02-05T15:22:08Z</time>
      </trkpt>
      <trkpt lat="48.43688" lon="-0.13498">
        <ele>343</ele>
        <time>2021-02-05T15:22:35Z</time>
      </trkpt>
      <trkpt lat="48.43625" lon="-0.13198">
        <ele>335</ele>
        <time>2021-02-05T15:23:24Z</time>
      </trkpt>
      <trkpt lat="48.43631" lon="-0.13138">
        <ele>335</ele>
        <time>2021-02-05T15:23:33Z</time>
      </trkpt>
      <trkpt lat="48.43534" lon="-0.12722">
        <ele>317</ele>
        <time>2021-02-05T15:24:42Z</time>
      </trkpt>
      <trkpt lat="48.43383" lon="-0.1258">
        <ele>301</ele>
        <time>2021-02-05T15:25:23Z</time>
      </trkpt>
      <trkpt lat="48.43338" lon="-0.12443">
        <ele>302</ele>
        <time>2021-02-05T15:25:47Z</time>
      </trkpt>
      <trkpt lat="48.43349" lon="-0.12391">
        <ele>305</ele>
        <time>2021-02-05T15:25:55Z</time>
      </trkpt>
      <trkpt lat="48.43315" lon="-0.12262">
        <ele>300</ele>
        <time>2021-02-05T15:26:17Z</time>
      </trkpt>
      <trkpt lat="48.4344" lon="-0.12031">
        <ele>295</ele>
        <time>2021-02-05T15:27:03Z</time>
      </trkpt>
      <trkpt lat="48.43582" lon="-0.12032">
        <ele>289</ele>
        <time>2021-02-05T15:27:36Z</time>
      </trkpt>
      <trkpt lat="48.43599" lon="-0.12071">
        <ele>288</ele>
        <time>2021-02-05T15:27:43Z</time>
      </trkpt>
      <trkpt lat="48.43636" lon="-0.12195">
        <ele>289</ele>
        <time>2021-02-05T15:28:05Z</time>
      </trkpt>
      <trkpt lat="48.43667" lon="-0.12002">
        <ele>270</ele>
        <time>2021-02-05T15:28:35Z</time>
      </trkpt>
      <trkpt lat="48.43863" lon="-0.1186">
        <ele>253</ele>
        <time>2021-02-05T15:29:26Z</time>
      </trkpt>
      <trkpt lat="48.43895" lon="-0.11787">
        <ele>250</ele>
        <time>2021-02-05T15:29:40Z</time>
      </trkpt>
      <trkpt lat="48.43905" lon="-0.11689">
        <ele>248</ele>
        <time>2021-02-05T15:29:55Z</time>
      </trkpt>
      <trkpt lat="48.43952" lon="-0.11599">
        <ele>250</ele>
        <time>2021-02-05T15:30:13Z</time>
      </trkpt>
      <trkpt lat="48.43715" lon="-0.11069">
        <ele>233</ele>
        <time>2021-02-05T15:31:52Z</time>
      </trkpt>
      <trkpt lat="48.43431" lon="-0.10769">
        <ele>222</ele>
        <time>2021-02-05T15:33:13Z</time>
      </trkpt>
      <trkpt lat="48.43738" lon="-0.10254">
        <ele>250</ele>
        <time>2021-02-05T15:35:00Z</time>
      </trkpt>
      <trkpt lat="48.43977" lon="-0.09765">
        <ele>273</ele>
        <time>2021-02-05T15:36:34Z</time>
      </trkpt>
      <trkpt lat="48.44125" lon="-0.09421">
        <ele>279</ele>
        <time>2021-02-05T15:37:38Z</time>
      </trkpt>
      <trkpt lat="48.44046" lon="-0.08752">
        <ele>257</ele>
        <time>2021-02-05T15:39:23Z</time>
      </trkpt>
      <trkpt lat="48.44057" lon="-0.0846">
        <ele>253</ele>
        <time>2021-02-05T15:40:08Z</time>
      </trkpt>
      <trkpt lat="48.4392" lon="-0.08022">
        <ele>236</ele>
        <time>2021-02-05T15:41:23Z</time>
      </trkpt>
      <trkpt lat="48.43915" lon="-0.07928">
        <ele>234</ele>
        <time>2021-02-05T15:41:38Z</time>
      </trkpt>
      <trkpt lat="48.43869" lon="-0.07816">
        <ele>227</ele>
        <time>2021-02-05T15:41:58Z</time>
      </trkpt>
      <trkpt lat="48.43911" lon="-0.07775">
        <ele>227</ele>
        <time>2021-02-05T15:42:10Z</time>
      </trkpt>
      <trkpt lat="48.43974" lon="-0.07796">
        <ele>227</ele>
        <time>2021-02-05T15:42:25Z</time>
      </trkpt>
      <trkpt lat="48.44048" lon="-0.07831">
        <ele>231</ele>
        <time>2021-02-05T15:42:43Z</time>
      </trkpt>
      <trkpt lat="48.44081" lon="-0.07792">
        <ele>228</ele>
        <time>2021-02-05T15:42:53Z</time>
      </trkpt>
      <trkpt lat="48.44104" lon="-0.07749">
        <ele>225</ele>
        <time>2021-02-05T15:43:01Z</time>
      </trkpt>
      <trkpt lat="48.44145" lon="-0.07622">
        <ele>220</ele>
        <time>2021-02-05T15:43:23Z</time>
      </trkpt>
      <trkpt lat="48.44143" lon="-0.0758">
        <ele>217</ele>
        <time>2021-02-05T15:43:30Z</time>
      </trkpt>
      <trkpt lat="48.44131" lon="-0.07462">
        <ele>210</ele>
        <time>2021-02-05T15:43:48Z</time>
      </trkpt>
      <trkpt lat="48.44111" lon="-0.07281">
        <ele>203</ele>
        <time>2021-02-05T15:44:17Z</time>
      </trkpt>
      <trkpt lat="48.44492" lon="-0.06566">
        <ele>198</ele>
        <time>2021-02-05T15:46:39Z</time>
      </trkpt>
      <trkpt lat="48.44559" lon="-0.06386">
        <ele>201</ele>
        <time>2021-02-05T15:47:11Z</time>
      </trkpt>
      <trkpt lat="48.4466" lon="-0.06402">
        <ele>205</ele>
        <time>2021-02-05T15:47:35Z</time>
      </trkpt>
      <trkpt lat="48.44694" lon="-0.0634">
        <ele>205</ele>
        <time>2021-02-05T15:47:47Z</time>
      </trkpt>
    </trkseg>
  </trk>
</gpx>